地図

経路データ

SID SEASON NUMBER BASIN SUBBASIN NAME ISO_TIME NATURE LAT LON WMO_WIND WMO_PRES WMO_AGENCY TRACK_TYPE DIST2LAND LANDFALL IFLAG USA_AGENCY USA_ATCF_ID USA_LAT USA_LON USA_RECORD USA_STATUS USA_WIND USA_PRES USA_SSHS USA_R34_NE USA_R34_SE USA_R34_SW USA_R34_NW USA_R50_NE USA_R50_SE USA_R50_SW USA_R50_NW USA_R64_NE USA_R64_SE USA_R64_SW USA_R64_NW USA_POCI USA_ROCI USA_RMW USA_EYE TOKYO_LAT TOKYO_LON TOKYO_GRADE TOKYO_WIND TOKYO_PRES TOKYO_R50_DIR TOKYO_R50_LONG TOKYO_R50_SHORT TOKYO_R30_DIR TOKYO_R30_LONG TOKYO_R30_SHORT TOKYO_LAND CMA_LAT CMA_LON CMA_CAT CMA_WIND CMA_PRES HKO_LAT HKO_LON HKO_CAT HKO_WIND HKO_PRES NEWDELHI_LAT NEWDELHI_LON NEWDELHI_GRADE NEWDELHI_WIND NEWDELHI_PRES NEWDELHI_CI NEWDELHI_DP NEWDELHI_POCI REUNION_LAT REUNION_LON REUNION_TYPE REUNION_WIND REUNION_PRES REUNION_TNUM REUNION_CI REUNION_RMW REUNION_R34_NE REUNION_R34_SE REUNION_R34_SW REUNION_R34_NW REUNION_R50_NE REUNION_R50_SE REUNION_R50_SW REUNION_R50_NW REUNION_R64_NE REUNION_R64_SE REUNION_R64_SW REUNION_R64_NW BOM_LAT BOM_LON BOM_TYPE BOM_WIND BOM_PRES BOM_TNUM BOM_CI BOM_RMW BOM_R34_NE BOM_R34_SE BOM_R34_SW BOM_R34_NW BOM_R50_NE BOM_R50_SE BOM_R50_SW BOM_R50_NW BOM_R64_NE BOM_R64_SE BOM_R64_SW BOM_R64_NW BOM_ROCI BOM_POCI BOM_EYE BOM_POS_METHOD BOM_PRES_METHOD NADI_LAT NADI_LON NADI_CAT NADI_WIND NADI_PRES WELLINGTON_LAT WELLINGTON_LON WELLINGTON_WIND WELLINGTON_PRES DS824_LAT DS824_LON DS824_STAGE DS824_WIND DS824_PRES TD9636_LAT TD9636_LON TD9636_STAGE TD9636_WIND TD9636_PRES TD9635_LAT TD9635_LON TD9635_WIND TD9635_PRES TD9635_ROCI NEUMANN_LAT NEUMANN_LON NEUMANN_CLASS NEUMANN_WIND NEUMANN_PRES MLC_LAT MLC_LON MLC_CLASS MLC_WIND MLC_PRES USA_GUST BOM_GUST BOM_GUST_PER REUNION_GUST REUNION_GUST_PER USA_SEAHGT USA_SEARAD_NE USA_SEARAD_SE USA_SEARAD_SW USA_SEARAD_NW STORM_SPEED STORM_DIR
1978177N11130 1978 42 WP MM SHIRLEY 1978-06-26 00:00:00 TS 11.1000 129.500 main 404 349 O________OO___ jtwc_wp WP051978 11.1000 129.500 TD 15 -1 11.1000 129.500 TC 15 11.1000 129.500 1 15 10 276
1978177N11130 1978 42 WP MM SHIRLEY 1978-06-26 03:00:00 TS 11.1529 128.995 main 350 295 P________PP___ WP051978 11.1476 129.003 TD 15 -1 11.1476 129.003 TC 15 11.1634 128.980 1 15 10 276
1978177N11130 1978 42 WP MM SHIRLEY 1978-06-26 06:00:00 TS 11.2070 128.489 main 295 242 O________OP___ jtwc_wp WP051978 11.2000 128.500 TD 15 -1 11.2000 128.500 TC 15 11.2211 128.468 1 15 10 276
1978177N11130 1978 42 WP MM SHIRLEY 1978-06-26 09:00:00 TS 11.2610 127.986 main 242 188 P________PP___ WP051978 11.2575 127.993 TD 15 -1 11.2575 127.993 TC 15 11.2682 127.972 1 15 10 275
1978177N11130 1978 42 WP MM SHIRLEY 1978-06-26 12:00:00 TS 11.3000 127.500 main 188 145 O________OO___ jtwc_wp WP051978 11.3000 127.500 TD 15 -1 11.3000 127.500 TC 15 11.3000 127.500 1 15 9 273
1978177N11130 1978 42 WP MM SHIRLEY 1978-06-26 15:00:00 TS 11.3094 127.051 main 145 93 P________PP___ WP051978 11.3074 127.050 TD 15 -1 11.3074 127.050 TC 15 11.3136 127.054 1 16 9 270
1978177N11130 1978 42 WP MM SHIRLEY 1978-06-26 18:00:00 TS 11.3046 126.603 main 93 55 O________OP___ jtwc_wp WP051978 11.3000 126.600 TD 15 -1 11.3000 126.600 TC 15 11.3139 126.610 1 17 9 270
1978177N11130 1978 42 WP MM SHIRLEY 1978-06-26 21:00:00 TS 11.3023 126.132 main 46 10 P________PP___ WP051978 11.2998 126.130 TD 17 -1 11.2998 126.130 TC 17 11.3072 126.135 1 18 10 270
1978177N11130 1978 42 WP MM SHIRLEY 1978-06-27 00:00:00 TS 11.3000 125.600 main 10 0 O________OO___ jtwc_wp WP051978 11.3000 125.600 TD 20 -1 11.3000 125.600 TC 20 11.3000 125.600 1 20 11 270
1978177N11130 1978 42 WP MM SHIRLEY 1978-06-27 03:00:00 TS 11.3079 124.991 main 0 0 P________PP___ WP051978 11.2999 124.987 TD 20 -1 11.2999 124.987 TC 20 11.3239 124.997 1 20 13 271
1978177N11130 1978 42 WP MM SHIRLEY 1978-06-27 06:00:00 TS 11.3147 124.309 main 10 10 O________OP___ jtwc_wp WP051978 11.3000 124.300 TD 20 -1 11.3000 124.300 TC 20 11.3442 124.328 1 20 14 271
1978177N11130 1978 42 WP MM SHIRLEY 1978-06-27 09:00:00 TS 11.3240 123.590 main 34 0 P________PP___ WP051978 11.3147 123.588 TD 20 -1 11.3147 123.588 TC 20 11.3424 123.594 1 20 15 269
1978177N11130 1978 42 WP MM SHIRLEY 1978-06-27 12:00:00 TS 11.3000 122.800 main 0 0 O________OO___ jtwc_wp WP051978 11.3000 122.800 TD 20 -1 11.3000 122.800 TC 20 11.3000 122.800 1 20 16 266
1978177N11130 1978 42 WP MM SHIRLEY 1978-06-27 15:00:00 TS 11.2153 121.915 main 21 21 P________PP___ WP051978 11.2299 121.923 TD 22 -1 11.2299 121.923 TC 22 11.1860 121.900 1 21 18 263
1978177N11130 1978 42 WP MM SHIRLEY 1978-06-27 18:00:00 TS 11.0772 120.985 main 103 55 O________OP___ jtwc_wp WP051978 11.1000 121.000 TD 25 -1 11.1000 121.000 TC 25 11.0315 120.954 1 22 19 260
1978177N11130 1978 42 WP MM SHIRLEY 1978-06-27 21:00:00 TS 10.8870 120.052 main 55 0 P________PP___ WP051978 10.9000 120.062 TD 25 -1 10.9000 120.062 TC 25 10.8611 120.031 1 23 17 256
1978177N11130 1978 42 WP MM SHIRLEY 1978-06-28 00:00:00 TS 10.6462 119.262 1006 tokyo main 0 0 OO_______OO___ jtwc_wp WP051978 10.7000 119.200 TD 25 -1 10.0000 120.000 2 1006 0 0 0 10.7000 119.200 TC 25 10.7000 119.200 1 25 14 255
1978177N11130 1978 42 WP MM SHIRLEY 1978-06-28 03:00:00 TS 10.5151 118.663 main 39 39 PP_______PP___ WP051978 10.5848 118.483 TD 25 -1 10.1450 119.822 2 1006 0 0 10.5848 118.483 TC 25 10.5607 118.444 1 25 11 259
1978177N11130 1978 42 WP MM SHIRLEY 1978-06-28 06:00:00 TS 10.4438 118.213 1006 tokyo main 73 73 OO_______OP___ jtwc_wp WP051978 10.5000 117.900 TD 25 -1 10.3000 119.600 2 1006 0 0 0 10.5000 117.900 TC 25 10.4394 117.801 1 25 8 262
1978177N11130 1978 42 WP MM SHIRLEY 1978-06-28 09:00:00 TS 10.3959 117.822 main 109 109 PP_______PP___ WP051978 10.3850 117.338 TD 25 -1 10.4650 119.308 2 1006 0 0 10.3850 117.338 TC 25 10.3484 117.307 1 25 7 264
1978177N11130 1978 42 WP MM SHIRLEY 1978-06-28 12:00:00 TS 10.3750 117.500 1006 tokyo main 133 133 OO_______OO___ jtwc_wp WP051978 10.3000 117.000 TD 25 -1 10.6000 119.000 2 1006 0 0 0 10.3000 117.000 TC 25 10.3000 117.000 1 25 4 267
1978177N11130 1978 42 WP MM SHIRLEY 1978-06-28 15:00:00 TS 10.3762 117.458 main 133 133 PP_______PP___ WP051978 10.2699 117.018 TD 25 -1 10.6873 118.780 2 1006 0 0 10.2699 117.018 TC 25 10.2778 117.019 1 25 0 0
1978177N11130 1978 42 WP MM SHIRLEY 1978-06-28 18:00:00 TS 10.4004 117.525 1006 tokyo main 133 125 OO_______OP___ jtwc_wp WP051978 10.3000 117.200 TD 25 -1 10.7000 118.500 2 1006 0 0 0 10.3000 117.200 TC 25 10.3017 117.200 1 25 1 65
1978177N11130 1978 42 WP MM SHIRLEY 1978-06-28 21:00:00 TS 10.4211 117.555 main 125 125 PP_______PP___ WP051978 10.3699 117.382 TD 25 -1 10.5699 118.075 2 1006 0 0 10.3699 117.382 TC 25 10.3746 117.381 1 25 1 317
1978177N11130 1978 42 WP MM SHIRLEY 1978-06-29 00:00:00 TS 10.5000 117.425 1006 tokyo main 148 148 OO_______OO___ jtwc_wp WP051978 10.5000 117.400 TD 25 -1 10.5000 117.500 2 1006 0 0 0 10.5000 117.400 TC 25 10.5000 117.400 1 25 6 294
1978177N11130 1978 42 WP MM SHIRLEY 1978-06-29 03:00:00 TS 10.6674 116.986 main 189 189 PP_______PP___ WP051978 10.6775 117.062 TD 25 -1 10.6603 116.750 2 1005 0 0 10.6775 117.062 TC 25 10.6545 117.069 1 25 11 292
1978177N11130 1978 42 WP MM SHIRLEY 1978-06-29 06:00:00 TS 10.9150 116.389 1004 tokyo main 244 244 OO_______OP___ jtwc_wp WP051978 10.9000 116.500 TD 25 -1 11.0000 116.000 2 1004 0 0 0 10.9000 116.500 TC 25 10.8601 116.554 1 25 13 295
1978177N11130 1978 42 WP MM SHIRLEY 1978-06-29 09:00:00 TS 11.2257 115.791 main 313 313 PP_______PP___ WP051978 11.1274 115.895 TD 25 -1 11.5372 115.463 2 1004 0 0 11.1274 115.895 TC 25 11.1106 115.913 1 25 14 298
1978177N11130 1978 42 WP MM SHIRLEY 1978-06-29 12:00:00 TS 11.5500 115.150 1004 tokyo main 383 383 OO_______OO___ jtwc_wp WP051978 11.4000 115.200 TD 25 -1 12.0000 115.000 2 1004 0 0 0 11.4000 115.200 TC 25 11.4000 115.200 1 25 14 296
1978177N11130 1978 42 WP MM SHIRLEY 1978-06-29 15:00:00 TS 11.8547 114.470 main 469 469 PP_______PP___ WP051978 11.7349 114.465 TD 27 -1 12.0074 114.499 2 1003 0 0 11.7349 114.465 TC 27 11.7426 114.504 1 27 15 294
1978177N11130 1978 42 WP MM SHIRLEY 1978-06-29 18:00:00 TS 12.1589 113.756 1002 tokyo main 469 391 OOO______OP___ jtwc_wp WP051978 12.1000 113.700 TD 30 -1 12.0000 114.000 2 1002 0 0 0 12.8000 113.500 1 29 998 12.1000 113.700 TC 30 12.1152 113.754 1 30 15 297
1978177N11130 1978 42 WP MM SHIRLEY 1978-06-29 21:00:00 TS 12.5315 113.088 main 391 325 PPP______PP___ WP051978 12.4723 112.950 TD 32 -1 12.4196 113.553 2 999 0 0 12.9027 113.023 1 33 996 12.4723 112.950 TC 32 12.4801 112.976 1 32 15 298
1978177N11130 1978 42 WP MM SHIRLEY 1978-06-30 00:00:00 TS 12.8524 112.433 996 tokyo main 314 238 OOOO_____OO___ jtwc_wp WP051978 12.8000 112.200 TS 35 0 12.9000 113.000 2 996 0 0 0 13.0000 112.500 2 38 995 12.7000 112.700 TD 30 998 12.8000 112.200 TC 35 12.8000 112.200 2 35 15 291
1978177N11130 1978 42 WP MM SHIRLEY 1978-06-30 03:00:00 TS 13.0449 111.697 main 238 166 PPPP_____PP___ WP051978 13.0298 111.442 TS 35 0 13.1677 112.203 2 996 0 0 13.0923 111.895 2 38 995 12.8356 111.888 TD 32 996 13.0298 111.442 TC 35 13.0093 111.410 2 35 15 283
1978177N11130 1978 42 WP MM SHIRLEY 1978-06-30 06:00:00 TS 13.1866 110.932 35 996 tokyo main 155 88 OOOO_____OP___ jtwc_wp WP051978 13.2000 110.700 TS 35 0 13.3000 111.300 3 35 996 0 9 90 90 0 13.2000 111.200 2 38 995 13.0000 111.100 TS 35 995 13.2000 110.700 TC 35 13.1730 110.637 2 35 15 280
1978177N11130 1978 42 WP MM SHIRLEY 1978-06-30 09:00:00 TS 13.3070 110.174 main 88 21 PPPP_____PP___ WP051978 13.3349 109.977 TS 35 0 13.3001 110.412 3 40 994 0 9 95 95 13.3276 110.407 2 38 995 13.2197 110.350 TS 40 995 13.3349 109.977 TC 35 13.3251 109.920 2 35 15 281
1978177N11130 1978 42 WP MM SHIRLEY 1978-06-30 12:00:00 TS 13.4636 109.464 45 992 tokyo main 21 0 OOOO_____OO___ jtwc_wp WP051978 13.5000 109.300 TS 35 0 13.3000 109.600 3 45 992 0 9 100 100 0 13.5000 109.600 2 38 995 13.5000 109.600 TS 45 995 13.5000 109.300 TC 35 13.5000 109.300 2 35 14 286
1978177N11130 1978 42 WP MM SHIRLEY 1978-06-30 15:00:00 TS 13.6897 108.833 main 0 0 PPPP_____PP___ WP051978 13.7677 108.683 TS 32 -1 13.4094 108.984 3 996 0 9 13.7121 108.892 2 33 995 13.8349 108.800 TS 37 996 13.7677 108.683 TC 32 13.7243 108.805 2 13 294
1978177N11130 1978 42 WP MM SHIRLEY 1978-06-30 18:00:00 TS 13.9868 108.226 1000 tokyo main 0 0 OOOO_____OP___ jtwc_wp WP051978 14.1000 108.100 TD 30 -1 13.7000 108.400 2 1000 0 0 0 14.0000 108.200 1 29 995 14.2000 108.000 TD 30 998 14.1000 108.100 TC 30 13.9919 108.413 2 14 299
1978177N11130 1978 42 WP MM SHIRLEY 1978-06-30 21:00:00 TS 14.3767 107.561 main 0 0 _PPP______P___ WP051978 TD -1 14.2697 107.703 2 1000 0 0 14.3695 107.487 1 29 995 14.5348 107.227 TD 27 999 TC 14.2887 108.090 2 16 302
1978177N11130 1978 42 WP MM SHIRLEY 1978-07-01 00:00:00 TS 14.8462 106.785 1000 tokyo main 0 0 _OOO______O___ 14.9000 106.900 2 1000 0 0 0 14.8000 106.700 1 29 995 14.9000 106.500 TD 25 1000 14.6000 107.800 6 19 300
1978177N11130 1978 42 WP MM SHIRLEY 1978-07-01 03:00:00 TS 15.3252 105.833 main 0 0 _PPP__________ 15.3454 105.935 2 1000 0 0 15.2880 105.736 1 29 995 15.3422 105.827 TD 25 1000 6 20 297
1978177N11130 1978 42 WP MM SHIRLEY 1978-07-01 06:00:00 TS 15.7273 104.982 1000 tokyo main 0 0 _OOO__________ 15.7000 105.000 2 1000 0 0 0 15.7000 104.800 1 29 996 15.8000 105.200 TD 25 1000 6 17 294
1978177N11130 1978 42 WP MM SHIRLEY 1978-07-01 09:00:00 TS 15.9888 104.253 main 0 0 _PPP__________ 16.0221 104.267 2 1000 0 0 15.8421 104.067 1 29 996 16.2154 104.595 TD 25 1000 6 14 290
1978177N11130 1978 42 WP MM SHIRLEY 1978-07-01 12:00:00 TS 16.2000 103.644 1000 tokyo main 0 0 _OOO__________ 16.3000 103.700 2 1000 0 0 0 16.0000 103.500 1 29 996 16.6000 104.000 TD 25 1000 12 297
1978177N11130 1978 42 WP MM SHIRLEY 1978-07-01 15:00:00 TS 16.5284 103.163 main 0 0 _PP___________ 16.5721 103.270 2 1000 0 0 16.4847 103.055 1 26 997 TD 11 311
1978177N11130 1978 42 WP MM SHIRLEY 1978-07-01 18:00:00 TS 16.9000 102.800 1000 tokyo main 0 0 _OO___________ 16.8000 102.900 2 1000 0 0 0 17.0000 102.700 1 23 998 9 311
1978177N11130 1978 42 WP MM SHIRLEY 1978-07-01 21:00:00 TS 17.1428 102.413 main 0 0 _PP___________ 16.9679 102.473 2 1000 0 0 17.3177 102.352 1 21 999 9 298
1978177N11130 1978 42 WP MM SHIRLEY 1978-07-02 00:00:00 TS 17.3000 102.000 1000 tokyo main 0 _OO___________ 17.1000 102.000 2 1000 0 0 0 17.5000 102.000 0 19 1000 8 292

デジタル台風データ・検索

IBTrACS Databaseについて

本データベースは、米国NOAAが公開する1842年以降の世界の熱帯低気圧のベストトラックデータアーカイブInternational Best Track Archive for Climate Stewardship (IBTrACS)を、ウェブで閲覧しやすい形式に変換したものです。

最終更新日:2021-11-26